Time;durP1;ratioP1;P1;durP2;ratioP2;P2;SDS_P1;SDS_P2;PMS_P1;PMS_P2;Temp;Humidity;BMP_temperature;BMP_pressure;BME280_temperature;BME280_humidity;BME280_pressure;Samples;Min_cycle;Max_cycle;Signal;HPM_P1;HPM_P2
2024/01/31 00:00:27;;;;;;;8.77;4.77;;;;;8.20;102716.00;;;;5075489;28;20596;-66
2024/01/31 00:03:14;;;;;;;8.83;4.13;;;;;8.20;102724.00;;;;5075248;28;20249;-65
2024/01/31 00:06:02;;;;;;;8.97;4.07;;;;;8.20;102738.00;;;;5087100;28;20237;-67
2024/01/31 00:08:49;;;;;;;8.30;4.50;;;;;8.30;102726.00;;;;5081952;28;20230;-65
2024/01/31 00:11:35;;;;;;;12.83;3.80;;;;;8.20;102730.00;;;;5087600;28;20250;-65
2024/01/31 00:14:22;;;;;;;7.87;3.70;;;;;8.20;102734.00;;;;5081545;28;20302;-67
2024/01/31 00:17:08;;;;;;;8.73;3.73;;;;;8.20;102735.00;;;;5085504;28;20248;-67
2024/01/31 00:19:54;;;;;;;6.50;3.43;;;;;8.20;102722.00;;;;5084873;28;20227;-65
2024/01/31 00:22:42;;;;;;;13.60;5.13;;;;;8.10;102724.00;;;;5084558;28;20383;-63
2024/01/31 00:25:29;;;;;;;12.30;4.50;;;;;8.00;102733.00;;;;5081456;28;20604;-65
2024/01/31 00:28:15;;;;;;;8.17;3.93;;;;;8.00;102737.00;;;;5083643;28;20229;-66
2024/01/31 00:31:01;;;;;;;8.73;4.27;;;;;8.00;102724.00;;;;5086296;28;23888;-66
2024/01/31 00:33:47;;;;;;;10.57;3.53;;;;;8.00;102746.00;;;;5079282;28;20245;-64
2024/01/31 00:36:34;;;;;;;9.43;3.47;;;;;8.10;102749.00;;;;5086839;28;20230;-64
2024/01/31 00:39:26;;;;;;;11.77;3.60;;;;;8.00;102750.00;;;;5080629;28;20741;-66
2024/01/31 00:42:12;;;;;;;10.03;3.63;;;;;8.10;102754.00;;;;5085741;28;20238;-66
2024/01/31 00:44:58;;;;;;;9.13;4.10;;;;;8.10;102760.00;;;;5084923;28;20225;-66
2024/01/31 00:47:44;;;;;;;11.43;3.43;;;;;7.90;102754.00;;;;5086426;28;20233;-66
2024/01/31 00:50:31;;;;;;;10.20;3.50;;;;;7.90;102748.00;;;;5086553;28;20632;-66
2024/01/31 00:53:17;;;;;;;3.63;2.40;;;;;7.90;102748.00;;;;5085814;28;20328;-64
2024/01/31 00:56:05;;;;;;;3.43;1.93;;;;;7.90;102742.00;;;;5080575;28;20752;-67
2024/01/31 00:58:51;;;;;;;4.40;2.27;;;;;7.90;102750.00;;;;5082120;28;20229;-66
2024/01/31 01:01:38;;;;;;;3.70;2.20;;;;;7.80;102755.00;;;;5082706;28;20291;-66
2024/01/31 01:04:24;;;;;;;3.90;2.40;;;;;7.70;102759.00;;;;5081506;28;20320;-65
2024/01/31 01:07:10;;;;;;;5.43;2.20;;;;;7.80;102762.00;;;;5086266;28;20246;-66
2024/01/31 01:09:56;;;;;;;3.93;1.70;;;;;7.70;102763.00;;;;5084115;28;20234;-67
2024/01/31 01:12:44;;;;;;;2.67;1.63;;;;;7.60;102750.00;;;;5085359;28;20235;-66
2024/01/31 01:15:31;;;;;;;7.50;2.03;;;;;7.60;102755.00;;;;5079112;28;20255;-65
2024/01/31 01:18:17;;;;;;;3.53;1.73;;;;;7.70;102764.00;;;;5075709;28;20355;-66
2024/01/31 01:21:04;;;;;;;3.37;1.50;;;;;7.70;102763.00;;;;5085467;28;20369;-67
2024/01/31 01:23:51;;;;;;;3.67;1.60;;;;;7.60;102748.00;;;;5083397;28;20361;-67
2024/01/31 01:26:39;;;;;;;5.40;2.40;;;;;7.60;102771.00;;;;5085088;28;20420;-67
2024/01/31 01:29:27;;;;;;;1.63;1.50;;;;;7.60;102767.00;;;;5076792;28;20230;-66
2024/01/31 01:32:13;;;;;;;1.80;1.30;;;;;7.50;102776.00;;;;5076825;28;20226;-66
2024/01/31 01:34:59;;;;;;;4.90;1.70;;;;;7.50;102780.00;;;;5081262;28;20284;-64
2024/01/31 01:37:46;;;;;;;3.07;1.30;;;;;7.50;102786.00;;;;5078566;28;20312;-67
2024/01/31 01:40:32;;;;;;;4.10;1.30;;;;;7.50;102783.00;;;;5080715;28;20240;-66
2024/01/31 01:43:20;;;;;;;2.93;1.60;;;;;7.50;102789.00;;;;5080035;28;20375;-66
2024/01/31 01:46:11;;;;;;;5.03;1.40;;;;;7.40;102801.00;;;;5082790;28;20246;-66
2024/01/31 01:48:57;;;;;;;3.93;1.33;;;;;7.60;102802.00;;;;5085226;28;20229;-65
2024/01/31 01:51:45;;;;;;;3.20;1.80;;;;;7.60;102804.00;;;;5074749;28;20254;-66
2024/01/31 01:54:32;;;;;;;1.47;1.37;;;;;7.50;102811.00;;;;5078162;28;20242;-65
2024/01/31 01:57:18;;;;;;;3.43;1.80;;;;;7.40;102810.00;;;;5079092;28;20244;-67
2024/01/31 02:00:09;;;;;;;1.63;1.40;;;;;7.50;102804.00;;;;5080810;28;20315;-66
2024/01/31 02:02:57;;;;;;;2.27;1.77;;;;;7.50;102800.00;;;;5080097;28;20232;-65
2024/01/31 02:05:46;;;;;;;2.00;1.30;;;;;7.50;102801.00;;;;5084764;28;20251;-66
2024/01/31 02:08:32;;;;;;;2.50;1.60;;;;;7.50;102802.00;;;;5084748;28;20259;-66
2024/01/31 02:11:19;;;;;;;2.67;1.40;;;;;7.50;102801.00;;;;5076364;28;20233;-66
2024/01/31 02:14:05;;;;;;;3.73;2.00;;;;;7.50;102798.00;;;;5083568;28;20370;-66
2024/01/31 02:16:56;;;;;;;4.90;1.60;;;;;7.40;102796.00;;;;5083625;28;20359;-64
2024/01/31 02:19:44;;;;;;;2.03;1.20;;;;;7.40;102805.00;;;;5084831;28;20298;-67
2024/01/31 02:22:32;;;;;;;7.53;2.30;;;;;7.50;102807.00;;;;5082418;28;20347;-66
2024/01/31 02:25:18;;;;;;;3.27;1.87;;;;;7.40;102806.00;;;;5080458;28;20781;-66
2024/01/31 02:28:05;;;;;;;2.00;1.33;;;;;7.40;102814.00;;;;5084555;28;20603;-66
2024/01/31 02:30:52;;;;;;;2.63;1.80;;;;;7.30;102815.00;;;;5082011;28;20228;-67
2024/01/31 02:33:38;;;;;;;1.70;1.30;;;;;7.30;102817.00;;;;5082868;28;20232;-63
2024/01/31 02:36:24;;;;;;;2.00;1.33;;;;;7.30;102805.00;;;;5084897;28;20606;-65
2024/01/31 02:39:12;;;;;;;1.83;1.50;;;;;7.30;102813.00;;;;5083420;28;20249;-66
2024/01/31 02:41:59;;;;;;;2.40;1.33;;;;;7.30;102800.00;;;;5083505;28;20212;-66
2024/01/31 02:44:45;;;;;;;3.17;2.07;;;;;7.30;102793.00;;;;5083408;28;20255;-66
2024/01/31 02:47:33;;;;;;;1.43;1.33;;;;;7.20;102794.00;;;;5080429;28;20233;-65
2024/01/31 02:50:20;;;;;;;5.50;1.57;;;;;7.20;102788.00;;;;5079495;28;20228;-66
2024/01/31 02:53:06;;;;;;;1.43;1.17;;;;;7.30;102796.00;;;;5078901;28;20228;-66
2024/01/31 02:55:54;;;;;;;1.40;1.30;;;;;7.20;102795.00;;;;5080241;28;20236;-66
2024/01/31 02:58:40;;;;;;;2.57;1.30;;;;;7.20;102789.00;;;;5083735;28;20235;-66
2024/01/31 03:01:27;;;;;;;1.97;1.50;;;;;7.20;102798.00;;;;5071230;28;20233;-64
2024/01/31 03:04:13;;;;;;;2.07;1.50;;;;;7.20;102804.00;;;;5082839;28;20228;-66
2024/01/31 03:06:59;;;;;;;1.40;1.30;;;;;7.20;102805.00;;;;5072867;28;20241;-66
2024/01/31 03:09:46;;;;;;;2.70;1.50;;;;;7.20;102804.00;;;;5079706;28;20243;-66
2024/01/31 03:12:33;;;;;;;3.37;1.10;;;;;7.20;102792.00;;;;5077362;28;20330;-66
2024/01/31 03:15:20;;;;;;;1.30;1.20;;;;;7.20;102796.00;;;;5083559;28;20224;-64
2024/01/31 03:18:06;;;;;;;1.73;1.20;;;;;7.20;102794.00;;;;5083498;28;20229;-66
2024/01/31 03:20:54;;;;;;;1.23;1.10;;;;;7.20;102796.00;;;;5085780;28;20799;-66
2024/01/31 03:23:40;;;;;;;1.47;1.37;;;;;7.20;102807.00;;;;5083748;28;20330;-65
2024/01/31 03:26:27;;;;;;;2.47;1.00;;;;;7.20;102813.00;;;;5085476;28;20231;-66
2024/01/31 03:29:15;;;;;;;1.03;0.93;;;;;7.20;102798.00;;;;5087637;28;20263;-65
2024/01/31 03:32:02;;;;;;;1.10;1.00;;;;;7.10;102803.00;;;;5084532;28;20402;-66
2024/01/31 03:34:49;;;;;;;2.23;1.33;;;;;7.10;102796.00;;;;5087803;28;20254;-65
2024/01/31 03:37:35;;;;;;;1.80;1.10;;;;;7.10;102798.00;;;;5078040;28;20236;-66
2024/01/31 03:40:21;;;;;;;5.97;1.40;;;;;7.10;102797.00;;;;5087047;28;20954;-64
2024/01/31 03:43:08;;;;;;;2.23;1.00;;;;;7.10;102789.00;;;;5086246;28;20234;-66
2024/01/31 03:45:56;;;;;;;2.70;1.10;;;;;7.00;102786.00;;;;5087492;28;20230;-67
2024/01/31 03:48:42;;;;;;;2.03;1.23;;;;;7.00;102789.00;;;;5082142;28;20808;-65
2024/01/31 03:51:28;;;;;;;2.40;1.20;;;;;7.00;102782.00;;;;5077704;28;20234;-63
2024/01/31 03:54:15;;;;;;;2.43;0.80;;;;;6.90;102771.00;;;;5085851;28;20244;-63
2024/01/31 03:57:01;;;;;;;1.00;1.00;;;;;6.90;102769.00;;;;5087001;28;20232;-63
2024/01/31 03:59:50;;;;;;;1.10;1.00;;;;;6.90;102769.00;;;;5085814;28;20250;-67
2024/01/31 04:02:38;;;;;;;4.00;1.10;;;;;6.90;102757.00;;;;5082082;28;20234;-66
2024/01/31 04:05:25;;;;;;;6.27;1.20;;;;;6.90;102756.00;;;;5085181;28;20308;-63
2024/01/31 04:08:11;;;;;;;0.90;0.90;;;;;6.90;102765.00;;;;5086554;28;20284;-65
2024/01/31 04:10:58;;;;;;;1.70;0.80;;;;;7.00;102766.00;;;;5087325;28;20248;-65
2024/01/31 04:13:45;;;;;;;1.33;1.10;;;;;6.90;102773.00;;;;5081679;28;20228;-66
2024/01/31 04:16:31;;;;;;;1.17;1.07;;;;;6.90;102773.00;;;;5079106;28;20240;-65
2024/01/31 04:19:19;;;;;;;1.87;1.13;;;;;6.90;102772.00;;;;5080213;28;20236;-66
2024/01/31 04:22:05;;;;;;;1.10;1.00;;;;;7.00;102772.00;;;;5081901;28;20229;-64
2024/01/31 04:24:52;;;;;;;0.97;0.93;;;;;6.90;102778.00;;;;5085010;28;20225;-66
2024/01/31 04:27:38;;;;;;;2.00;1.07;;;;;6.90;102782.00;;;;5085588;28;20325;-66
2024/01/31 04:30:25;;;;;;;1.63;1.10;;;;;6.90;102791.00;;;;5084306;28;20253;-64
2024/01/31 04:33:11;;;;;;;2.10;1.37;;;;;6.90;102787.00;;;;5079637;28;20249;-66
2024/01/31 04:35:59;;;;;;;2.27;1.10;;;;;6.90;102795.00;;;;5082909;28;20339;-66
2024/01/31 04:38:45;;;;;;;1.07;0.97;;;;;6.90;102792.00;;;;5085714;28;20233;-66
2024/01/31 04:41:31;;;;;;;1.00;1.00;;;;;6.90;102792.00;;;;5084036;28;20248;-67
2024/01/31 04:44:18;;;;;;;0.93;0.83;;;;;6.90;102782.00;;;;5085100;28;20225;-66
2024/01/31 04:47:04;;;;;;;1.07;0.87;;;;;7.00;102795.00;;;;5082613;28;20234;-64
2024/01/31 04:49:51;;;;;;;2.50;1.00;;;;;7.00;102784.00;;;;5085880;28;20244;-67
2024/01/31 04:52:39;;;;;;;1.70;1.00;;;;;6.90;102780.00;;;;5078997;28;20241;-65
2024/01/31 04:55:25;;;;;;;1.13;1.00;;;;;6.80;102780.00;;;;5085366;28;20236;-66
2024/01/31 04:58:12;;;;;;;0.90;0.90;;;;;6.80;102768.00;;;;5085198;28;20592;-66
2024/01/31 05:00:59;;;;;;;1.00;1.00;;;;;6.80;102769.00;;;;5086271;28;20239;-64
2024/01/31 05:03:46;;;;;;;1.60;1.20;;;;;6.70;102774.00;;;;5080247;28;20745;-66
2024/01/31 05:06:32;;;;;;;2.47;1.37;;;;;6.70;102756.00;;;;5085350;28;20227;-64
2024/01/31 05:09:20;;;;;;;4.67;1.37;;;;;6.80;102756.00;;;;5086103;28;20237;-66
2024/01/31 05:12:07;;;;;;;0.70;0.70;;;;;6.80;102761.00;;;;5082337;28;20224;-67
2024/01/31 05:14:53;;;;;;;1.10;1.00;;;;;6.80;102762.00;;;;5081576;28;20365;-65
2024/01/31 05:17:40;;;;;;;1.30;1.20;;;;;6.80;102751.00;;;;5078165;28;20343;-66
2024/01/31 05:20:27;;;;;;;4.77;1.40;;;;;6.70;102756.00;;;;5080364;28;20812;-64
2024/01/31 05:23:14;;;;;;;1.23;1.00;;;;;6.70;102758.00;;;;5085946;28;20603;-66
2024/01/31 05:26:01;;;;;;;1.10;1.00;;;;;6.70;102753.00;;;;5081023;28;20220;-65
2024/01/31 05:28:48;;;;;;;5.87;2.83;;;;;6.70;102748.00;;;;5082743;28;20608;-64
2024/01/31 05:31:34;;;;;;;3.40;1.60;;;;;6.70;102748.00;;;;5085388;28;20227;-66
2024/01/31 05:34:22;;;;;;;4.40;1.60;;;;;6.70;102758.00;;;;5084982;28;20230;-66
2024/01/31 05:37:08;;;;;;;2.80;1.17;;;;;6.70;102756.00;;;;5078674;28;20252;-66
2024/01/31 05:39:55;;;;;;;1.17;1.07;;;;;6.70;102762.00;;;;5078726;28;20240;-66
2024/01/31 05:42:43;;;;;;;3.80;0.90;;;;;6.70;102756.00;;;;5083047;28;21054;-65
2024/01/31 05:45:31;;;;;;;1.23;1.23;;;;;6.70;102760.00;;;;5084041;28;20363;-65
2024/01/31 05:48:17;;;;;;;1.30;1.20;;;;;6.70;102764.00;;;;5084831;28;20230;-65
2024/01/31 05:51:04;;;;;;;1.30;1.20;;;;;6.70;102758.00;;;;5081833;28;20728;-64
2024/01/31 05:53:51;;;;;;;0.90;0.90;;;;;6.60;102755.00;;;;5085456;28;20757;-66
2024/01/31 05:56:38;;;;;;;3.40;1.30;;;;;6.60;102766.00;;;;5084439;28;20236;-64
2024/01/31 05:59:26;;;;;;;1.40;1.30;;;;;6.60;102765.00;;;;5079874;28;20238;-66
2024/01/31 06:02:12;;;;;;;1.83;1.10;;;;;6.60;102759.00;;;;5084848;28;20359;-66
2024/01/31 06:04:58;;;;;;;1.13;1.03;;;;;6.60;102764.00;;;;5079230;28;20232;-65
2024/01/31 06:07:45;;;;;;;1.17;1.07;;;;;6.60;102774.00;;;;5079650;28;20229;-66
2024/01/31 06:10:31;;;;;;;2.20;1.30;;;;;6.60;102752.00;;;;5083690;28;20264;-67
2024/01/31 06:13:17;;;;;;;1.53;1.23;;;;;6.60;102775.00;;;;5081584;28;20705;-64
2024/01/31 06:16:06;;;;;;;2.33;1.23;;;;;6.60;102773.00;;;;5084421;28;20233;-66
2024/01/31 06:18:52;;;;;;;5.50;1.47;;;;;6.50;102770.00;;;;5084891;28;20238;-67
2024/01/31 06:21:38;;;;;;;2.80;1.30;;;;;6.60;102766.00;;;;5084606;28;20274;-66
2024/01/31 06:24:25;;;;;;;1.07;1.07;;;;;6.60;102762.00;;;;5083434;28;20290;-65
2024/01/31 06:27:11;;;;;;;0.73;0.73;;;;;6.50;102750.00;;;;5082451;28;20297;-66
2024/01/31 06:29:59;;;;;;;2.63;0.87;;;;;6.50;102752.00;;;;5075459;28;20720;-66
2024/01/31 06:32:48;;;;;;;1.70;1.00;;;;;6.50;102740.00;;;;5073278;28;20239;-65
2024/01/31 06:35:35;;;;;;;0.73;0.73;;;;;6.50;102759.00;;;;5083849;28;20726;-66
2024/01/31 06:38:22;;;;;;;0.97;0.90;;;;;6.50;102756.00;;;;5083409;28;20299;-64
2024/01/31 06:41:08;;;;;;;0.97;0.93;;;;;6.50;102749.00;;;;5082657;28;20235;-65
2024/01/31 06:43:55;;;;;;;3.07;1.37;;;;;6.40;102751.00;;;;5076133;28;20224;-65
2024/01/31 06:46:46;;;;;;;1.10;0.97;;;;;6.40;102753.00;;;;5084205;28;20223;-64
2024/01/31 06:49:34;;;;;;;2.57;1.30;;;;;6.40;102747.00;;;;5082535;28;20243;-65
2024/01/31 06:52:21;;;;;;;1.30;1.20;;;;;6.50;102755.00;;;;5080376;28;20797;-66
2024/01/31 06:55:09;;;;;;;2.73;1.63;;;;;6.50;102754.00;;;;5081284;28;20233;-67
2024/01/31 06:57:55;;;;;;;2.50;1.40;;;;;6.60;102757.00;;;;5078268;28;20311;-64
2024/01/31 07:00:41;;;;;;;2.33;1.53;;;;;6.60;102760.00;;;;5078141;28;21160;-65
2024/01/31 07:03:28;;;;;;;1.00;1.00;;;;;6.60;102759.00;;;;5081527;28;20303;-66
2024/01/31 07:06:16;;;;;;;2.20;1.33;;;;;6.60;102754.00;;;;5079193;28;20235;-67
2024/01/31 07:09:02;;;;;;;1.30;1.20;;;;;6.60;102756.00;;;;5084068;28;20228;-66
2024/01/31 07:11:49;;;;;;;1.17;1.07;;;;;6.60;102743.00;;;;5079043;28;20229;-66
2024/01/31 07:14:35;;;;;;;1.20;1.10;;;;;6.60;102754.00;;;;5082723;28;20231;-66
2024/01/31 07:17:22;;;;;;;1.20;1.10;;;;;6.60;102753.00;;;;5077871;28;20759;-67
2024/01/31 07:20:09;;;;;;;1.27;1.10;;;;;6.60;102760.00;;;;5074083;28;20265;-66
2024/01/31 07:22:57;;;;;;;1.27;1.17;;;;;6.60;102766.00;;;;5076352;28;20219;-66
2024/01/31 07:25:43;;;;;;;1.13;1.10;;;;;6.60;102762.00;;;;5082801;28;20222;-66
2024/01/31 07:28:31;;;;;;;4.20;1.10;;;;;6.60;102758.00;;;;5078500;28;20757;-65
2024/01/31 07:31:18;;;;;;;2.00;1.90;;;;;6.70;102760.00;;;;5084161;28;20691;-63
2024/01/31 07:34:04;;;;;;;1.90;1.60;;;;;6.70;102759.00;;;;5083009;28;20648;-64
2024/01/31 07:36:51;;;;;;;1.73;1.53;;;;;6.70;102769.00;;;;5081045;28;20678;-65
2024/01/31 07:39:39;;;;;;;2.60;1.70;;;;;6.70;102770.00;;;;5081096;28;20237;-67
2024/01/31 07:42:26;;;;;;;2.17;1.90;;;;;6.70;102762.00;;;;5084435;28;20245;-66
2024/01/31 07:45:13;;;;;;;2.47;1.60;;;;;6.70;102773.00;;;;5082424;28;20278;-67
2024/01/31 07:47:59;;;;;;;2.20;1.67;;;;;6.80;102779.00;;;;5076686;28;20771;-65
2024/01/31 07:50:46;;;;;;;1.70;1.37;;;;;6.90;102781.00;;;;5078452;28;20233;-66
2024/01/31 07:53:32;;;;;;;2.17;1.87;;;;;6.80;102796.00;;;;5071939;28;20236;-64
2024/01/31 07:56:20;;;;;;;2.17;1.70;;;;;6.90;102811.00;;;;5073004;28;20584;-67
2024/01/31 07:59:06;;;;;;;4.60;1.63;;;;;6.80;102809.00;;;;5080614;28;20354;-67
2024/01/31 08:01:53;;;;;;;1.57;1.47;;;;;6.90;102804.00;;;;5080264;28;20696;-66
2024/01/31 08:04:39;;;;;;;2.27;1.63;;;;;7.00;102808.00;;;;5082332;28;20713;-66
2024/01/31 08:07:25;;;;;;;2.20;2.00;;;;;6.90;102804.00;;;;5077315;28;20229;-66
2024/01/31 08:10:12;;;;;;;1.60;1.50;;;;;7.00;102822.00;;;;5086475;28;20844;-65
2024/01/31 08:13:00;;;;;;;2.17;1.50;;;;;6.90;102824.00;;;;5084087;28;20345;-66
2024/01/31 08:15:47;;;;;;;2.10;1.87;;;;;6.90;102820.00;;;;5084457;28;20279;-66
2024/01/31 08:18:33;;;;;;;2.23;1.93;;;;;6.90;102836.00;;;;5083212;28;20341;-66
2024/01/31 08:21:20;;;;;;;2.53;1.50;;;;;7.10;102844.00;;;;5085298;28;20228;-65
2024/01/31 08:24:06;;;;;;;2.10;1.80;;;;;7.00;102840.00;;;;5086869;28;20756;-63
2024/01/31 08:26:52;;;;;;;1.40;1.30;;;;;7.10;102845.00;;;;5084745;28;20247;-66
2024/01/31 08:29:40;;;;;;;1.90;1.73;;;;;7.10;102841.00;;;;5085043;28;20235;-66
2024/01/31 08:32:26;;;;;;;3.73;1.67;;;;;7.10;102842.00;;;;5085624;28;20743;-66
2024/01/31 08:35:13;;;;;;;1.97;1.60;;;;;7.10;102845.00;;;;5086167;28;20372;-65
2024/01/31 08:37:59;;;;;;;2.80;1.60;;;;;7.10;102866.00;;;;5078799;28;20235;-67
2024/01/31 08:40:46;;;;;;;1.83;1.60;;;;;7.10;102859.00;;;;5083371;28;20230;-66
2024/01/31 08:43:32;;;;;;;3.47;2.10;;;;;7.10;102858.00;;;;5082865;28;20325;-65
2024/01/31 08:46:20;;;;;;;2.50;1.70;;;;;7.10;102857.00;;;;5086930;28;20586;-65
2024/01/31 08:49:06;;;;;;;2.30;1.60;;;;;7.10;102852.00;;;;5080068;28;20249;-66
2024/01/31 08:51:53;;;;;;;6.97;2.03;;;;;7.10;102851.00;;;;5085999;28;20815;-64
2024/01/31 08:54:40;;;;;;;5.63;1.90;;;;;7.20;102855.00;;;;5086618;28;20636;-63
2024/01/31 08:57:26;;;;;;;2.97;1.83;;;;;7.10;102851.00;;;;5081788;28;20370;-63
2024/01/31 09:00:14;;;;;;;2.40;1.97;;;;;7.20;102858.00;;;;5084895;28;20246;-64
2024/01/31 09:03:03;;;;;;;2.73;1.80;;;;;7.30;102856.00;;;;5084112;28;20225;-66
2024/01/31 09:05:49;;;;;;;3.77;2.20;;;;;7.20;102857.00;;;;5081757;28;20230;-66
2024/01/31 09:08:36;;;;;;;2.47;2.27;;;;;7.20;102845.00;;;;5079299;28;20356;-64
2024/01/31 09:11:22;;;;;;;2.50;2.00;;;;;7.30;102848.00;;;;5069985;28;20492;-65
2024/01/31 09:14:09;;;;;;;4.93;2.40;;;;;7.30;102837.00;;;;5086087;28;20216;-63
2024/01/31 09:16:55;;;;;;;2.53;1.90;;;;;7.30;102822.00;;;;5084984;28;20240;-64
2024/01/31 09:19:43;;;;;;;2.30;2.10;;;;;7.30;102831.00;;;;5080898;28;20240;-66
2024/01/31 09:22:33;;;;;;;3.53;2.17;;;;;7.30;102817.00;;;;5076127;28;20356;-67
2024/01/31 09:25:19;;;;;;;4.60;2.13;;;;;7.40;102822.00;;;;5086120;28;20712;-66
2024/01/31 09:28:06;;;;;;;3.87;2.27;;;;;7.50;102813.00;;;;5082728;28;20228;-66
2024/01/31 09:30:52;;;;;;;3.70;2.37;;;;;7.40;102821.00;;;;5084633;28;20361;-66
2024/01/31 09:33:40;;;;;;;3.83;2.30;;;;;7.50;102810.00;;;;5080272;28;20219;-64
2024/01/31 09:36:27;;;;;;;3.77;2.40;;;;;7.50;102806.00;;;;5070724;28;20715;-67
2024/01/31 09:39:14;;;;;;;5.13;2.63;;;;;7.50;102803.00;;;;5082115;28;20385;-65
2024/01/31 09:42:00;;;;;;;2.73;2.07;;;;;7.50;102802.00;;;;5085313;28;20604;-66
2024/01/31 09:44:47;;;;;;;3.10;2.30;;;;;7.60;102802.00;;;;5083867;28;20878;-66
2024/01/31 09:47:37;;;;;;;3.93;2.67;;;;;7.50;102804.00;;;;5084421;28;20242;-67
2024/01/31 09:50:23;;;;;;;4.47;2.70;;;;;7.60;102798.00;;;;5082156;28;20241;-66
2024/01/31 09:53:12;;;;;;;3.03;2.50;;;;;7.60;102790.00;;;;5085236;28;20225;-66
2024/01/31 09:55:58;;;;;;;3.50;2.50;;;;;7.70;102786.00;;;;5085251;28;20238;-65
2024/01/31 09:58:44;;;;;;;5.17;2.60;;;;;7.70;102790.00;;;;5084602;28;21183;-66
2024/01/31 10:01:30;;;;;;;3.33;2.10;;;;;7.70;102796.00;;;;5072876;28;20236;-65
2024/01/31 10:04:18;;;;;;;3.63;2.80;;;;;7.70;102794.00;;;;5083755;28;20227;-65
2024/01/31 10:07:07;;;;;;;2.77;2.20;;;;;7.80;102793.00;;;;5074122;28;20247;-63
2024/01/31 10:09:56;;;;;;;4.20;2.50;;;;;7.80;102788.00;;;;5082657;28;20237;-65
2024/01/31 10:12:43;;;;;;;5.80;2.43;;;;;7.80;102790.00;;;;5081735;28;21119;-63
2024/01/31 10:15:29;;;;;;;3.53;2.73;;;;;7.90;102785.00;;;;5074915;28;20573;-66
2024/01/31 10:18:16;;;;;;;3.97;2.40;;;;;7.90;102782.00;;;;5082407;28;20250;-66
2024/01/31 10:21:03;;;;;;;5.80;2.90;;;;;8.00;102776.00;;;;5083727;28;20227;-66
2024/01/31 10:23:58;;;;;;;4.73;3.17;;;;;8.00;102777.00;;;;5073869;28;20222;-67
2024/01/31 10:26:45;;;;;;;4.77;2.57;;;;;8.10;102767.00;;;;5080056;28;20285;-65
2024/01/31 10:29:32;;;;;;;4.87;2.47;;;;;8.10;102764.00;;;;5083593;28;20354;-66
2024/01/31 10:32:22;;;;;;;3.40;2.50;;;;;8.20;102763.00;;;;5077101;28;20274;-66
2024/01/31 10:35:10;;;;;;;4.30;2.77;;;;;8.20;102760.00;;;;5081339;28;20306;-64
2024/01/31 10:38:16;;;;;;;5.43;2.50;;;;;8.20;102756.00;;;;5076738;28;20853;-65
2024/01/31 10:41:06;;;;;;;6.20;3.10;;;;;8.30;102754.00;;;;5082022;28;20226;-65
2024/01/31 10:43:55;;;;;;;4.07;2.67;;;;;8.30;102744.00;;;;5081729;28;20467;-65
2024/01/31 10:46:42;;;;;;;4.73;2.63;;;;;8.40;102736.00;;;;5083021;28;20249;-66
2024/01/31 10:49:29;;;;;;;3.20;2.50;;;;;8.40;102732.00;;;;5083842;28;20242;-66
2024/01/31 10:52:19;;;;;;;4.23;2.60;;;;;8.40;102725.00;;;;5083963;28;20228;-62
2024/01/31 10:55:08;;;;;;;3.30;2.53;;;;;8.50;102721.00;;;;5073354;28;20258;-66
2024/01/31 10:57:55;;;;;;;3.00;2.13;;;;;8.50;102721.00;;;;5072620;28;20235;-63
2024/01/31 11:00:47;;;;;;;4.63;2.10;;;;;8.50;102723.00;;;;5081972;28;20313;-65
2024/01/31 11:03:34;;;;;;;3.53;2.27;;;;;8.50;102721.00;;;;5071641;28;20231;-65
2024/01/31 11:06:20;;;;;;;3.17;2.60;;;;;8.40;102729.00;;;;5074692;28;20231;-64
2024/01/31 11:09:08;;;;;;;2.47;2.10;;;;;8.40;102738.00;;;;5081618;28;20796;-66
2024/01/31 11:12:03;;;;;;;2.33;1.83;;;;;8.50;102733.00;;;;5081613;28;20235;-64
2024/01/31 11:14:50;;;;;;;2.57;1.90;;;;;8.60;102719.00;;;;5082252;28;20231;-64
2024/01/31 11:17:44;;;;;;;3.30;2.27;;;;;8.50;102716.00;;;;5082462;28;20230;-65
2024/01/31 11:20:32;;;;;;;2.37;1.80;;;;;8.50;102726.00;;;;5080717;28;20256;-66
2024/01/31 11:23:22;;;;;;;4.03;1.97;;;;;8.50;102724.00;;;;5075742;28;20227;-64
2024/01/31 11:26:09;;;;;;;2.53;2.07;;;;;8.50;102717.00;;;;5081459;28;20239;-66
2024/01/31 11:28:56;;;;;;;3.10;2.10;;;;;8.50;102714.00;;;;5083566;28;20218;-67
2024/01/31 11:31:42;;;;;;;2.53;2.13;;;;;8.60;102713.00;;;;5080665;28;20239;-65
2024/01/31 11:34:30;;;;;;;2.23;2.03;;;;;8.60;102707.00;;;;5079696;28;20243;-66
2024/01/31 11:37:16;;;;;;;6.10;2.20;;;;;8.60;102697.00;;;;5079818;28;20293;-64
2024/01/31 11:40:03;;;;;;;2.87;2.40;;;;;8.70;102701.00;;;;5078920;28;20250;-66
2024/01/31 11:42:51;;;;;;;3.40;2.53;;;;;8.70;102688.00;;;;5084577;28;20734;-68
2024/01/31 11:45:39;;;;;;;3.53;2.53;;;;;8.70;102675.00;;;;5083336;28;20235;-65
2024/01/31 11:48:25;;;;;;;5.10;2.53;;;;;8.70;102674.00;;;;5085127;28;20632;-66
2024/01/31 11:51:13;;;;;;;6.23;2.90;;;;;8.80;102671.00;;;;5079363;28;20219;-66
2024/01/31 11:53:59;;;;;;;6.30;3.20;;;;;8.80;102669.00;;;;5086353;28;20230;-66
2024/01/31 11:56:47;;;;;;;5.07;3.60;;;;;8.90;102664.00;;;;5082114;28;20278;-66
2024/01/31 11:59:34;;;;;;;3.73;3.13;;;;;8.90;102653.00;;;;5083149;28;20803;-64
2024/01/31 12:02:21;;;;;;;3.97;3.00;;;;;9.00;102646.00;;;;5080280;28;20218;-67
2024/01/31 12:05:08;;;;;;;4.97;3.70;;;;;9.00;102648.00;;;;5078936;28;20235;-66
2024/01/31 12:07:57;;;;;;;5.53;3.10;;;;;9.00;102644.00;;;;5083776;28;20235;-66
2024/01/31 12:10:43;;;;;;;7.07;3.30;;;;;9.10;102622.00;;;;5085097;28;21039;-65
2024/01/31 12:13:29;;;;;;;4.60;3.30;;;;;9.00;102616.00;;;;5086991;28;20346;-66
2024/01/31 12:16:16;;;;;;;7.80;3.23;;;;;9.10;102607.00;;;;5080176;28;20227;-65
2024/01/31 12:19:03;;;;;;;8.47;3.53;;;;;9.00;102614.00;;;;5080044;28;20370;-65
2024/01/31 12:21:49;;;;;;;6.90;3.90;;;;;9.10;102597.00;;;;5075640;28;20435;-66
2024/01/31 12:24:38;;;;;;;6.27;3.97;;;;;9.20;102582.00;;;;5085382;28;20227;-65
2024/01/31 12:27:24;;;;;;;7.37;4.00;;;;;9.20;102576.00;;;;5084735;28;20235;-65
2024/01/31 12:30:11;;;;;;;8.80;4.07;;;;;9.30;102570.00;;;;5079832;28;20377;-65
2024/01/31 12:32:58;;;;;;;6.23;4.17;;;;;9.30;102565.00;;;;5084402;28;20235;-64
2024/01/31 12:35:44;;;;;;;4.33;3.23;;;;;9.40;102557.00;;;;5086532;28;20346;-62
2024/01/31 12:38:31;;;;;;;6.97;4.43;;;;;9.40;102550.00;;;;5076627;28;20298;-66
2024/01/31 12:41:18;;;;;;;10.20;3.80;;;;;9.50;102534.00;;;;5082216;28;20240;-65
2024/01/31 12:44:05;;;;;;;9.53;4.27;;;;;9.50;102541.00;;;;5084225;28;20227;-65
2024/01/31 12:46:52;;;;;;;7.27;4.30;;;;;9.50;102528.00;;;;5078772;28;20251;-65
2024/01/31 12:49:39;;;;;;;7.90;4.27;;;;;9.40;102522.00;;;;5085786;28;20601;-63
2024/01/31 12:52:25;;;;;;;8.23;4.13;;;;;9.40;102520.00;;;;5079454;28;20349;-63
2024/01/31 12:55:12;;;;;;;12.37;4.53;;;;;9.40;102520.00;;;;5081544;28;20228;-63
2024/01/31 12:58:00;;;;;;;6.97;4.20;;;;;9.40;102511.00;;;;5078175;28;20219;-65
2024/01/31 13:00:46;;;;;;;9.57;4.77;;;;;9.30;102498.00;;;;5080283;28;20612;-64
2024/01/31 13:03:35;;;;;;;8.70;4.23;;;;;9.10;102485.00;;;;5086210;28;20831;-65
2024/01/31 13:06:22;;;;;;;10.43;4.70;;;;;9.20;102485.00;;;;5086443;28;20294;-65
2024/01/31 13:09:10;;;;;;;9.17;4.43;;;;;9.30;102492.00;;;;5080231;28;20227;-64
2024/01/31 13:11:56;;;;;;;10.03;5.20;;;;;9.20;102496.00;;;;5084731;28;20297;-64
2024/01/31 13:14:44;;;;;;;7.80;4.43;;;;;9.20;102482.00;;;;5084750;28;20311;-65
2024/01/31 13:17:30;;;;;;;9.20;4.53;;;;;9.10;102486.00;;;;5085088;28;20337;-63
2024/01/31 13:20:17;;;;;;;9.80;5.10;;;;;8.90;102477.00;;;;5082454;28;20239;-64
2024/01/31 13:23:04;;;;;;;7.60;3.93;;;;;8.80;102490.00;;;;5081752;28;20297;-65
2024/01/31 13:25:50;;;;;;;11.23;5.00;;;;;8.70;102481.00;;;;5082431;28;20235;-65
2024/01/31 13:28:36;;;;;;;8.83;5.67;;;;;8.70;102485.00;;;;5084016;28;20732;-65
2024/01/31 13:31:24;;;;;;;8.63;5.50;;;;;8.60;102481.00;;;;5082748;28;20223;-64
2024/01/31 13:34:10;;;;;;;8.50;5.13;;;;;8.60;102484.00;;;;5080694;28;20230;-65
2024/01/31 13:36:57;;;;;;;9.50;5.50;;;;;8.70;102489.00;;;;5082988;28;20238;-64
2024/01/31 13:39:43;;;;;;;9.00;4.97;;;;;8.70;102482.00;;;;5075807;28;20228;-64
2024/01/31 13:42:29;;;;;;;9.57;5.20;;;;;8.70;102500.00;;;;5079774;28;20606;-64
2024/01/31 13:45:16;;;;;;;7.27;5.17;;;;;8.70;102491.00;;;;5083434;28;20224;-65
2024/01/31 13:48:04;;;;;;;8.37;5.43;;;;;8.70;102470.00;;;;5083772;28;20288;-65
2024/01/31 13:50:53;;;;;;;9.80;5.17;;;;;8.70;102473.00;;;;5082998;28;20625;-66
2024/01/31 13:53:39;;;;;;;10.23;5.00;;;;;8.70;102466.00;;;;5079965;28;20239;-65